sensor_id;sensor_type;location;lat;lon;timestamp;temperature;humidity
12384;DHT22;6256;63.808;20.336;2023-02-23T00:01:43;-1.90;99.90
12384;DHT22;6256;63.808;20.336;2023-02-23T00:04:09;-1.80;99.90
12384;DHT22;6256;63.808;20.336;2023-02-23T00:06:36;-1.80;99.90
12384;DHT22;6256;63.808;20.336;2023-02-23T00:09:03;-1.80;99.90
12384;DHT22;6256;63.808;20.336;2023-02-23T00:11:39;-1.70;99.90
12384;DHT22;6256;63.808;20.336;2023-02-23T00:14:05;-1.80;99.90
12384;DHT22;6256;63.808;20.336;2023-02-23T00:16:33;-1.80;99.90
12384;DHT22;6256;63.808;20.336;2023-02-23T00:18:58;-1.80;99.90
12384;DHT22;6256;63.808;20.336;2023-02-23T00:21:29;-1.80;99.90
12384;DHT22;6256;63.808;20.336;2023-02-23T00:24:04;-1.80;99.90
12384;DHT22;6256;63.808;20.336;2023-02-23T00:26:37;-1.80;99.90
12384;DHT22;6256;63.808;20.336;2023-02-23T00:29:06;-1.70;99.90
12384;DHT22;6256;63.808;20.336;2023-02-23T00:31:41;-1.70;99.90
12384;DHT22;6256;63.808;20.336;2023-02-23T00:34:09;-1.70;99.90
12384;DHT22;6256;63.808;20.336;2023-02-23T00:36:36;-1.60;99.90
12384;DHT22;6256;63.808;20.336;2023-02-23T00:39:05;-1.60;99.90
12384;DHT22;6256;63.808;20.336;2023-02-23T00:41:43;-1.60;99.90
12384;DHT22;6256;63.808;20.336;2023-02-23T00:44:09;-1.60;99.90
12384;DHT22;6256;63.808;20.336;2023-02-23T00:46:35;-1.60;99.90
12384;DHT22;6256;63.808;20.336;2023-02-23T00:49:01;-1.70;99.90
12384;DHT22;6256;63.808;20.336;2023-02-23T00:51:27;-1.70;99.90
12384;DHT22;6256;63.808;20.336;2023-02-23T00:53:58;-1.70;99.90
12384;DHT22;6256;63.808;20.336;2023-02-23T00:56:25;-1.70;99.90
12384;DHT22;6256;63.808;20.336;2023-02-23T00:58:51;-1.70;99.90
12384;DHT22;6256;63.808;20.336;2023-02-23T01:01:17;-1.70;99.90
12384;DHT22;6256;63.808;20.336;2023-02-23T01:03:43;-1.60;99.90
12384;DHT22;6256;63.808;20.336;2023-02-23T01:06:12;-1.60;99.90
12384;DHT22;6256;63.808;20.336;2023-02-23T01:08:44;-1.60;99.90
12384;DHT22;6256;63.808;20.336;2023-02-23T01:11:21;-1.60;99.90
12384;DHT22;6256;63.808;20.336;2023-02-23T01:13:50;-1.60;99.90
12384;DHT22;6256;63.808;20.336;2023-02-23T01:16:17;-1.60;99.90
12384;DHT22;6256;63.808;20.336;2023-02-23T01:18:44;-1.60;99.90
12384;DHT22;6256;63.808;20.336;2023-02-23T01:21:38;-1.60;99.90
12384;DHT22;6256;63.808;20.336;2023-02-23T01:24:08;-1.50;99.90
12384;DHT22;6256;63.808;20.336;2023-02-23T01:26:36;-1.50;99.90
12384;DHT22;6256;63.808;20.336;2023-02-23T01:29:08;-1.50;99.90
12384;DHT22;6256;63.808;20.336;2023-02-23T01:31:35;-1.50;99.90
12384;DHT22;6256;63.808;20.336;2023-02-23T01:34:03;-1.50;99.90
12384;DHT22;6256;63.808;20.336;2023-02-23T01:36:33;-1.40;99.90
12384;DHT22;6256;63.808;20.336;2023-02-23T01:38:59;-1.40;99.90
12384;DHT22;6256;63.808;20.336;2023-02-23T01:41:27;-1.40;99.90
12384;DHT22;6256;63.808;20.336;2023-02-23T01:46:40;-1.40;99.90
12384;DHT22;6256;63.808;20.336;2023-02-23T01:49:10;-1.30;99.90
12384;DHT22;6256;63.808;20.336;2023-02-23T01:51:43;-1.40;99.90
12384;DHT22;6256;63.808;20.336;2023-02-23T01:54:17;-1.30;99.90
12384;DHT22;6256;63.808;20.336;2023-02-23T01:56:48;-1.30;99.90
12384;DHT22;6256;63.808;20.336;2023-02-23T01:59:24;-1.30;99.90
12384;DHT22;6256;63.808;20.336;2023-02-23T02:01:53;-1.30;99.90
12384;DHT22;6256;63.808;20.336;2023-02-23T02:04:20;-1.20;99.90
12384;DHT22;6256;63.808;20.336;2023-02-23T02:06:48;-1.20;99.90
12384;DHT22;6256;63.808;20.336;2023-02-23T02:09:18;-1.20;99.90
12384;DHT22;6256;63.808;20.336;2023-02-23T02:11:45;-1.20;99.90
12384;DHT22;6256;63.808;20.336;2023-02-23T02:14:22;-1.20;99.90
12384;DHT22;6256;63.808;20.336;2023-02-23T02:17:22;-1.20;99.90
12384;DHT22;6256;63.808;20.336;2023-02-23T02:20:09;-1.20;99.90
12384;DHT22;6256;63.808;20.336;2023-02-23T02:28:29;-1.20;99.90
12384;DHT22;6256;63.808;20.336;2023-02-23T02:45:02;-1.30;99.90
12384;DHT22;6256;63.808;20.336;2023-02-23T02:48:09;-1.20;99.90
12384;DHT22;6256;63.808;20.336;2023-02-23T02:53:04;-1.20;99.90
12384;DHT22;6256;63.808;20.336;2023-02-23T02:55:33;-1.20;99.90
12384;DHT22;6256;63.808;20.336;2023-02-23T02:58:01;-1.30;99.90
12384;DHT22;6256;63.808;20.336;2023-02-23T03:00:45;-1.20;99.90
12384;DHT22;6256;63.808;20.336;2023-02-23T03:03:37;-1.30;99.90
12384;DHT22;6256;63.808;20.336;2023-02-23T03:06:37;-1.30;99.90
12384;DHT22;6256;63.808;20.336;2023-02-23T03:15:59;-1.30;99.90
12384;DHT22;6256;63.808;20.336;2023-02-23T03:25:22;-1.40;99.90
12384;DHT22;6256;63.808;20.336;2023-02-23T03:28:13;-1.50;99.90
12384;DHT22;6256;63.808;20.336;2023-02-23T03:31:27;-1.40;99.90
12384;DHT22;6256;63.808;20.336;2023-02-23T03:34:27;-1.40;99.90
12384;DHT22;6256;63.808;20.336;2023-02-23T03:37:41;-1.50;99.90
12384;DHT22;6256;63.808;20.336;2023-02-23T03:40:34;-1.50;99.90
12384;DHT22;6256;63.808;20.336;2023-02-23T03:43:25;-1.50;99.90
12384;DHT22;6256;63.808;20.336;2023-02-23T03:46:12;-1.60;99.90
12384;DHT22;6256;63.808;20.336;2023-02-23T03:49:00;-1.70;99.90
12384;DHT22;6256;63.808;20.336;2023-02-23T03:51:47;-1.80;99.90
12384;DHT22;6256;63.808;20.336;2023-02-23T03:54:38;-1.70;99.90
12384;DHT22;6256;63.808;20.336;2023-02-23T03:57:25;-1.70;99.90
12384;DHT22;6256;63.808;20.336;2023-02-23T04:00:16;-1.70;99.90
12384;DHT22;6256;63.808;20.336;2023-02-23T04:03:07;-1.70;99.90
12384;DHT22;6256;63.808;20.336;2023-02-23T04:05:54;-1.70;99.90
12384;DHT22;6256;63.808;20.336;2023-02-23T04:08:39;-1.80;99.90
12384;DHT22;6256;63.808;20.336;2023-02-23T04:14:32;-1.70;99.90
12384;DHT22;6256;63.808;20.336;2023-02-23T04:17:01;-1.80;99.90
12384;DHT22;6256;63.808;20.336;2023-02-23T04:19:28;-1.80;99.90
12384;DHT22;6256;63.808;20.336;2023-02-23T04:21:54;-1.80;99.90
12384;DHT22;6256;63.808;20.336;2023-02-23T04:24:20;-1.80;99.90
12384;DHT22;6256;63.808;20.336;2023-02-23T04:26:45;-1.80;99.90
12384;DHT22;6256;63.808;20.336;2023-02-23T04:29:11;-1.80;99.90
12384;DHT22;6256;63.808;20.336;2023-02-23T04:31:37;-1.80;99.90
12384;DHT22;6256;63.808;20.336;2023-02-23T04:34:03;-1.80;99.90
12384;DHT22;6256;63.808;20.336;2023-02-23T04:36:29;-1.90;99.90
12384;DHT22;6256;63.808;20.336;2023-02-23T04:38:55;-1.90;99.90
12384;DHT22;6256;63.808;20.336;2023-02-23T04:41:21;-1.90;99.90
12384;DHT22;6256;63.808;20.336;2023-02-23T04:43:46;-1.80;99.90
12384;DHT22;6256;63.808;20.336;2023-02-23T04:46:12;-1.90;99.90
12384;DHT22;6256;63.808;20.336;2023-02-23T04:48:38;-1.80;99.90
12384;DHT22;6256;63.808;20.336;2023-02-23T04:51:04;-1.80;99.90
12384;DHT22;6256;63.808;20.336;2023-02-23T04:53:30;-1.90;99.90
12384;DHT22;6256;63.808;20.336;2023-02-23T04:55:55;-1.80;99.90
12384;DHT22;6256;63.808;20.336;2023-02-23T04:58:21;-1.80;99.90
12384;DHT22;6256;63.808;20.336;2023-02-23T05:00:47;-1.90;99.90
12384;DHT22;6256;63.808;20.336;2023-02-23T05:03:12;-1.90;99.90
12384;DHT22;6256;63.808;20.336;2023-02-23T05:05:38;-2.00;99.90
12384;DHT22;6256;63.808;20.336;2023-02-23T05:08:05;-1.90;99.90
12384;DHT22;6256;63.808;20.336;2023-02-23T05:10:30;-1.90;99.90
12384;DHT22;6256;63.808;20.336;2023-02-23T05:12:56;-1.90;99.90
12384;DHT22;6256;63.808;20.336;2023-02-23T05:15:22;-1.90;99.90
12384;DHT22;6256;63.808;20.336;2023-02-23T05:17:48;-1.80;99.90
12384;DHT22;6256;63.808;20.336;2023-02-23T05:20:14;-1.90;99.90
12384;DHT22;6256;63.808;20.336;2023-02-23T05:22:40;-1.90;99.90
12384;DHT22;6256;63.808;20.336;2023-02-23T05:25:07;-1.90;99.90
12384;DHT22;6256;63.808;20.336;2023-02-23T05:27:34;-1.90;99.90
12384;DHT22;6256;63.808;20.336;2023-02-23T05:30:01;-1.80;99.90
12384;DHT22;6256;63.808;20.336;2023-02-23T05:32:27;-1.80;99.90
12384;DHT22;6256;63.808;20.336;2023-02-23T05:34:54;-1.90;99.90
12384;DHT22;6256;63.808;20.336;2023-02-23T05:37:19;-2.00;99.90
12384;DHT22;6256;63.808;20.336;2023-02-23T05:39:46;-1.90;99.90
12384;DHT22;6256;63.808;20.336;2023-02-23T05:42:11;-2.00;99.90
12384;DHT22;6256;63.808;20.336;2023-02-23T05:44:37;-2.00;99.90
12384;DHT22;6256;63.808;20.336;2023-02-23T05:47:03;-2.00;99.90
12384;DHT22;6256;63.808;20.336;2023-02-23T05:49:28;-2.00;99.90
12384;DHT22;6256;63.808;20.336;2023-02-23T05:51:54;-2.10;99.90
12384;DHT22;6256;63.808;20.336;2023-02-23T05:54:20;-2.00;99.90
12384;DHT22;6256;63.808;20.336;2023-02-23T05:56:46;-1.90;99.90
12384;DHT22;6256;63.808;20.336;2023-02-23T05:59:12;-2.00;99.90
12384;DHT22;6256;63.808;20.336;2023-02-23T06:01:38;-2.00;99.90
12384;DHT22;6256;63.808;20.336;2023-02-23T06:04:04;-2.00;99.90
12384;DHT22;6256;63.808;20.336;2023-02-23T06:06:30;-2.00;99.90
12384;DHT22;6256;63.808;20.336;2023-02-23T06:08:56;-2.00;99.90
12384;DHT22;6256;63.808;20.336;2023-02-23T06:11:21;-2.00;99.90
12384;DHT22;6256;63.808;20.336;2023-02-23T06:13:47;-2.00;99.90
12384;DHT22;6256;63.808;20.336;2023-02-23T06:16:13;-2.00;99.90
12384;DHT22;6256;63.808;20.336;2023-02-23T06:18:39;-2.00;99.90
12384;DHT22;6256;63.808;20.336;2023-02-23T06:21:05;-2.00;99.90
12384;DHT22;6256;63.808;20.336;2023-02-23T06:23:31;-2.10;99.90
12384;DHT22;6256;63.808;20.336;2023-02-23T06:25:57;-2.00;99.90
12384;DHT22;6256;63.808;20.336;2023-02-23T06:28:24;-2.00;99.90
12384;DHT22;6256;63.808;20.336;2023-02-23T06:30:51;-2.00;99.90
12384;DHT22;6256;63.808;20.336;2023-02-23T06:33:18;-2.00;99.90
12384;DHT22;6256;63.808;20.336;2023-02-23T06:35:43;-2.00;99.90
12384;DHT22;6256;63.808;20.336;2023-02-23T06:38:09;-2.00;99.90
12384;DHT22;6256;63.808;20.336;2023-02-23T06:40:37;-2.00;99.90
12384;DHT22;6256;63.808;20.336;2023-02-23T06:43:03;-1.90;99.90
12384;DHT22;6256;63.808;20.336;2023-02-23T06:45:30;-1.80;99.90
12384;DHT22;6256;63.808;20.336;2023-02-23T06:47:57;-1.80;99.90
12384;DHT22;6256;63.808;20.336;2023-02-23T06:50:22;-1.80;99.90
12384;DHT22;6256;63.808;20.336;2023-02-23T06:52:48;-1.80;99.90
12384;DHT22;6256;63.808;20.336;2023-02-23T06:55:14;-1.90;99.90
12384;DHT22;6256;63.808;20.336;2023-02-23T06:57:40;-1.90;99.90
12384;DHT22;6256;63.808;20.336;2023-02-23T07:00:07;-1.90;99.90
12384;DHT22;6256;63.808;20.336;2023-02-23T07:02:33;-1.80;99.90
12384;DHT22;6256;63.808;20.336;2023-02-23T07:05:01;-1.80;99.90
12384;DHT22;6256;63.808;20.336;2023-02-23T07:07:26;-1.70;99.90
12384;DHT22;6256;63.808;20.336;2023-02-23T07:09:52;-1.70;99.90
12384;DHT22;6256;63.808;20.336;2023-02-23T07:12:18;-1.70;99.90
12384;DHT22;6256;63.808;20.336;2023-02-23T07:14:43;-1.60;99.90
12384;DHT22;6256;63.808;20.336;2023-02-23T07:17:09;-1.60;99.90
12384;DHT22;6256;63.808;20.336;2023-02-23T07:19:35;-1.60;99.90
12384;DHT22;6256;63.808;20.336;2023-02-23T07:22:01;-1.60;99.90
12384;DHT22;6256;63.808;20.336;2023-02-23T07:24:27;-1.50;99.90
12384;DHT22;6256;63.808;20.336;2023-02-23T07:26:52;-1.60;99.90
12384;DHT22;6256;63.808;20.336;2023-02-23T07:29:18;-1.50;99.90
12384;DHT22;6256;63.808;20.336;2023-02-23T07:31:44;-1.50;99.90
12384;DHT22;6256;63.808;20.336;2023-02-23T07:34:10;-1.50;99.90
12384;DHT22;6256;63.808;20.336;2023-02-23T07:36:36;-1.40;99.90
12384;DHT22;6256;63.808;20.336;2023-02-23T07:39:05;-1.50;99.90
12384;DHT22;6256;63.808;20.336;2023-02-23T07:41:31;-1.40;99.90
12384;DHT22;6256;63.808;20.336;2023-02-23T07:43:58;-1.40;99.90
12384;DHT22;6256;63.808;20.336;2023-02-23T07:46:24;-1.30;99.90
12384;DHT22;6256;63.808;20.336;2023-02-23T07:48:50;-1.40;99.90
12384;DHT22;6256;63.808;20.336;2023-02-23T07:51:19;-1.40;99.90
12384;DHT22;6256;63.808;20.336;2023-02-23T07:53:45;-1.40;99.90
12384;DHT22;6256;63.808;20.336;2023-02-23T07:56:11;-1.30;99.90
12384;DHT22;6256;63.808;20.336;2023-02-23T07:58:38;-1.40;99.90
12384;DHT22;6256;63.808;20.336;2023-02-23T08:01:04;-1.40;99.90
12384;DHT22;6256;63.808;20.336;2023-02-23T08:03:30;-1.50;99.90
12384;DHT22;6256;63.808;20.336;2023-02-23T08:05:56;-1.50;99.90
12384;DHT22;6256;63.808;20.336;2023-02-23T08:08:21;-1.40;99.90
12384;DHT22;6256;63.808;20.336;2023-02-23T08:10:48;-1.40;99.90
12384;DHT22;6256;63.808;20.336;2023-02-23T08:13:14;-1.30;99.90
12384;DHT22;6256;63.808;20.336;2023-02-23T08:15:40;-1.30;99.90
12384;DHT22;6256;63.808;20.336;2023-02-23T08:18:06;-1.20;99.90
12384;DHT22;6256;63.808;20.336;2023-02-23T08:20:32;-1.10;99.90
12384;DHT22;6256;63.808;20.336;2023-02-23T08:22:58;-1.10;99.90
12384;DHT22;6256;63.808;20.336;2023-02-23T08:25:24;-1.10;99.90
12384;DHT22;6256;63.808;20.336;2023-02-23T08:27:52;-1.10;99.90
12384;DHT22;6256;63.808;20.336;2023-02-23T08:30:19;-1.10;99.90
12384;DHT22;6256;63.808;20.336;2023-02-23T08:32:46;-1.00;99.90
12384;DHT22;6256;63.808;20.336;2023-02-23T08:35:11;-1.00;99.90
12384;DHT22;6256;63.808;20.336;2023-02-23T08:37:38;-0.90;99.90
12384;DHT22;6256;63.808;20.336;2023-02-23T08:40:04;-0.90;99.90
12384;DHT22;6256;63.808;20.336;2023-02-23T08:42:30;-0.80;99.90
12384;DHT22;6256;63.808;20.336;2023-02-23T08:44:56;-0.80;99.90
12384;DHT22;6256;63.808;20.336;2023-02-23T08:47:23;-0.70;99.90
12384;DHT22;6256;63.808;20.336;2023-02-23T08:49:49;-0.50;99.90
12384;DHT22;6256;63.808;20.336;2023-02-23T08:52:15;-0.30;99.90
12384;DHT22;6256;63.808;20.336;2023-02-23T08:54:41;-0.20;99.90
12384;DHT22;6256;63.808;20.336;2023-02-23T08:57:07;0.00;99.90
12384;DHT22;6256;63.808;20.336;2023-02-23T08:59:33;0.10;99.90
12384;DHT22;6256;63.808;20.336;2023-02-23T09:01:59;0.20;99.90
12384;DHT22;6256;63.808;20.336;2023-02-23T09:04:24;0.20;99.90
12384;DHT22;6256;63.808;20.336;2023-02-23T09:06:51;0.20;99.90
12384;DHT22;6256;63.808;20.336;2023-02-23T09:09:17;0.20;99.90
12384;DHT22;6256;63.808;20.336;2023-02-23T09:11:43;0.10;99.90
12384;DHT22;6256;63.808;20.336;2023-02-23T09:14:09;0.10;99.90
12384;DHT22;6256;63.808;20.336;2023-02-23T09:16:35;0.00;99.90
12384;DHT22;6256;63.808;20.336;2023-02-23T09:19:02;0.00;99.90
12384;DHT22;6256;63.808;20.336;2023-02-23T09:21:28;0.10;99.90
12384;DHT22;6256;63.808;20.336;2023-02-23T09:23:55;0.30;99.90
12384;DHT22;6256;63.808;20.336;2023-02-23T09:26:22;0.40;99.90
12384;DHT22;6256;63.808;20.336;2023-02-23T09:28:48;0.50;99.90
12384;DHT22;6256;63.808;20.336;2023-02-23T09:31:18;0.70;99.90
12384;DHT22;6256;63.808;20.336;2023-02-23T09:33:44;1.00;99.90
12384;DHT22;6256;63.808;20.336;2023-02-23T09:36:15;1.00;99.90
12384;DHT22;6256;63.808;20.336;2023-02-23T09:38:43;1.10;99.90
12384;DHT22;6256;63.808;20.336;2023-02-23T09:44:21;1.00;99.90
12384;DHT22;6256;63.808;20.336;2023-02-23T09:49:22;1.10;99.90
12384;DHT22;6256;63.808;20.336;2023-02-23T09:51:53;1.10;99.90
12384;DHT22;6256;63.808;20.336;2023-02-23T09:54:23;1.20;99.90
12384;DHT22;6256;63.808;20.336;2023-02-23T09:56:52;1.40;99.90
12384;DHT22;6256;63.808;20.336;2023-02-23T09:59:21;1.20;99.90
12384;DHT22;6256;63.808;20.336;2023-02-23T10:04:18;1.10;99.90
12384;DHT22;6256;63.808;20.336;2023-02-23T10:06:52;1.10;99.90
12384;DHT22;6256;63.808;20.336;2023-02-23T10:12:41;1.30;99.90
12384;DHT22;6256;63.808;20.336;2023-02-23T10:15:24;1.40;99.90
12384;DHT22;6256;63.808;20.336;2023-02-23T10:21:17;1.20;99.90
12384;DHT22;6256;63.808;20.336;2023-02-23T10:26:24;1.30;99.90
12384;DHT22;6256;63.808;20.336;2023-02-23T10:28:53;1.30;99.90
12384;DHT22;6256;63.808;20.336;2023-02-23T10:31:37;1.30;99.90
12384;DHT22;6256;63.808;20.336;2023-02-23T10:34:12;1.30;99.90
12384;DHT22;6256;63.808;20.336;2023-02-23T10:36:44;1.30;99.90
12384;DHT22;6256;63.808;20.336;2023-02-23T10:39:12;1.20;99.90
12384;DHT22;6256;63.808;20.336;2023-02-23T10:41:38;1.20;99.90
12384;DHT22;6256;63.808;20.336;2023-02-23T10:44:10;1.10;99.90
12384;DHT22;6256;63.808;20.336;2023-02-23T10:46:41;1.10;99.90
12384;DHT22;6256;63.808;20.336;2023-02-23T10:49:15;1.10;99.90
12384;DHT22;6256;63.808;20.336;2023-02-23T10:51:42;1.10;99.90
12384;DHT22;6256;63.808;20.336;2023-02-23T10:54:38;1.00;99.90
12384;DHT22;6256;63.808;20.336;2023-02-23T10:57:05;1.10;99.90
12384;DHT22;6256;63.808;20.336;2023-02-23T10:59:32;1.10;99.90
12384;DHT22;6256;63.808;20.336;2023-02-23T11:02:03;1.10;99.90
12384;DHT22;6256;63.808;20.336;2023-02-23T11:04:50;1.20;99.90
12384;DHT22;6256;63.808;20.336;2023-02-23T11:07:21;1.10;99.90
12384;DHT22;6256;63.808;20.336;2023-02-23T11:09:47;1.10;99.90
12384;DHT22;6256;63.808;20.336;2023-02-23T11:12:20;1.10;99.90
12384;DHT22;6256;63.808;20.336;2023-02-23T11:14:47;1.20;99.90
12384;DHT22;6256;63.808;20.336;2023-02-23T11:17:35;1.30;99.90
12384;DHT22;6256;63.808;20.336;2023-02-23T11:20:17;1.20;99.90
12384;DHT22;6256;63.808;20.336;2023-02-23T11:22:45;1.30;99.90
12384;DHT22;6256;63.808;20.336;2023-02-23T11:25:28;1.30;99.90
12384;DHT22;6256;63.808;20.336;2023-02-23T11:27:54;1.40;99.90
12384;DHT22;6256;63.808;20.336;2023-02-23T11:30:23;1.50;99.90
12384;DHT22;6256;63.808;20.336;2023-02-23T11:32:58;1.80;99.90
12384;DHT22;6256;63.808;20.336;2023-02-23T11:35:34;2.00;99.90
12384;DHT22;6256;63.808;20.336;2023-02-23T11:38:34;2.10;99.90
12384;DHT22;6256;63.808;20.336;2023-02-23T11:41:17;2.70;99.90
12384;DHT22;6256;63.808;20.336;2023-02-23T11:43:50;3.30;99.90
12384;DHT22;6256;63.808;20.336;2023-02-23T11:46:18;3.50;99.90
12384;DHT22;6256;63.808;20.336;2023-02-23T11:49:02;3.70;99.90
12384;DHT22;6256;63.808;20.336;2023-02-23T11:51:34;3.90;99.90
12384;DHT22;6256;63.808;20.336;2023-02-23T11:54:01;4.20;99.90
12384;DHT22;6256;63.808;20.336;2023-02-23T11:56:30;4.50;99.90
12384;DHT22;6256;63.808;20.336;2023-02-23T11:59:00;4.70;99.90
12384;DHT22;6256;63.808;20.336;2023-02-23T12:01:53;4.90;99.90
12384;DHT22;6256;63.808;20.336;2023-02-23T12:04:31;5.20;99.90
12384;DHT22;6256;63.808;20.336;2023-02-23T12:09:55;4.70;99.90
12384;DHT22;6256;63.808;20.336;2023-02-23T12:12:22;4.60;99.90
12384;DHT22;6256;63.808;20.336;2023-02-23T12:14:55;4.80;99.90
12384;DHT22;6256;63.808;20.336;2023-02-23T12:17:26;4.70;99.90
12384;DHT22;6256;63.808;20.336;2023-02-23T12:20:09;4.50;99.90
12384;DHT22;6256;63.808;20.336;2023-02-23T12:22:52;4.20;99.90
12384;DHT22;6256;63.808;20.336;2023-02-23T12:25:49;4.40;99.90
12384;DHT22;6256;63.808;20.336;2023-02-23T12:28:36;4.70;99.90
12384;DHT22;6256;63.808;20.336;2023-02-23T12:31:16;4.20;99.90
12384;DHT22;6256;63.808;20.336;2023-02-23T12:33:46;3.80;99.90
12384;DHT22;6256;63.808;20.336;2023-02-23T12:41:35;2.70;99.90
12384;DHT22;6256;63.808;20.336;2023-02-23T12:44:16;2.60;99.90
12384;DHT22;6256;63.808;20.336;2023-02-23T12:46:49;2.50;99.90
12384;DHT22;6256;63.808;20.336;2023-02-23T12:49:40;2.40;99.90
12384;DHT22;6256;63.808;20.336;2023-02-23T12:52:27;2.40;99.90
12384;DHT22;6256;63.808;20.336;2023-02-23T12:54:54;2.40;99.90
12384;DHT22;6256;63.808;20.336;2023-02-23T12:57:34;2.30;99.90
12384;DHT22;6256;63.808;20.336;2023-02-23T13:00:26;2.10;99.90
12384;DHT22;6256;63.808;20.336;2023-02-23T13:20:17;1.40;99.90
12384;DHT22;6256;63.808;20.336;2023-02-23T13:28:07;1.40;99.90
12384;DHT22;6256;63.808;20.336;2023-02-23T13:30:38;1.40;99.90
12384;DHT22;6256;63.808;20.336;2023-02-23T13:33:27;1.40;99.90
12384;DHT22;6256;63.808;20.336;2023-02-23T13:36:01;1.40;99.90
12384;DHT22;6256;63.808;20.336;2023-02-23T13:38:44;1.30;99.90
12384;DHT22;6256;63.808;20.336;2023-02-23T13:41:35;1.20;99.90
12384;DHT22;6256;63.808;20.336;2023-02-23T13:44:06;1.20;99.90
12384;DHT22;6256;63.808;20.336;2023-02-23T13:46:44;1.10;99.90
12384;DHT22;6256;63.808;20.336;2023-02-23T13:51:49;1.10;99.90
12384;DHT22;6256;63.808;20.336;2023-02-23T13:56:59;1.00;99.90
12384;DHT22;6256;63.808;20.336;2023-02-23T13:59:38;0.90;99.90
12384;DHT22;6256;63.808;20.336;2023-02-23T14:04:48;0.80;99.90
12384;DHT22;6256;63.808;20.336;2023-02-23T14:07:24;0.80;99.90
12384;DHT22;6256;63.808;20.336;2023-02-23T14:10:03;0.80;99.90
12384;DHT22;6256;63.808;20.336;2023-02-23T14:17:57;0.60;99.90
12384;DHT22;6256;63.808;20.336;2023-02-23T14:20:55;0.50;99.90
12384;DHT22;6256;63.808;20.336;2023-02-23T14:28:38;0.50;99.90
12384;DHT22;6256;63.808;20.336;2023-02-23T14:31:30;0.50;99.90
12384;DHT22;6256;63.808;20.336;2023-02-23T14:33:58;0.50;99.90
12384;DHT22;6256;63.808;20.336;2023-02-23T14:46:48;0.20;99.90
12384;DHT22;6256;63.808;20.336;2023-02-23T14:49:22;0.10;99.90
12384;DHT22;6256;63.808;20.336;2023-02-23T14:52:05;0.10;99.90
12384;DHT22;6256;63.808;20.336;2023-02-23T14:57:02;-0.10;99.90
12384;DHT22;6256;63.808;20.336;2023-02-23T14:59:36;-0.20;99.90
12384;DHT22;6256;63.808;20.336;2023-02-23T15:02:09;-0.20;99.90
12384;DHT22;6256;63.808;20.336;2023-02-23T15:04:36;-0.20;99.90
12384;DHT22;6256;63.808;20.336;2023-02-23T15:07:05;-0.30;99.90
12384;DHT22;6256;63.808;20.336;2023-02-23T15:09:37;-0.30;99.90
12384;DHT22;6256;63.808;20.336;2023-02-23T15:12:30;-0.40;99.90
12384;DHT22;6256;63.808;20.336;2023-02-23T15:15:01;-0.50;99.90
12384;DHT22;6256;63.808;20.336;2023-02-23T15:17:28;-0.50;99.90
12384;DHT22;6256;63.808;20.336;2023-02-23T15:20:07;-0.50;99.90
12384;DHT22;6256;63.808;20.336;2023-02-23T15:22:37;-0.60;99.90
12384;DHT22;6256;63.808;20.336;2023-02-23T15:25:18;-0.60;99.90
12384;DHT22;6256;63.808;20.336;2023-02-23T15:27:45;-0.70;99.90
12384;DHT22;6256;63.808;20.336;2023-02-23T15:30:27;-0.80;99.90
12384;DHT22;6256;63.808;20.336;2023-02-23T15:33:12;-0.90;99.90
12384;DHT22;6256;63.808;20.336;2023-02-23T15:35:49;-1.00;99.90
12384;DHT22;6256;63.808;20.336;2023-02-23T15:38:25;-1.00;99.90
12384;DHT22;6256;63.808;20.336;2023-02-23T15:40:56;-1.10;99.90
12384;DHT22;6256;63.808;20.336;2023-02-23T15:43:23;-1.20;99.90
12384;DHT22;6256;63.808;20.336;2023-02-23T15:45:51;-1.20;99.90
12384;DHT22;6256;63.808;20.336;2023-02-23T15:48:24;-1.30;99.90
12384;DHT22;6256;63.808;20.336;2023-02-23T15:50:54;-1.30;99.90
12384;DHT22;6256;63.808;20.336;2023-02-23T15:53:43;-1.40;99.90
12384;DHT22;6256;63.808;20.336;2023-02-23T15:56:14;-1.50;99.90
12384;DHT22;6256;63.808;20.336;2023-02-23T15:58:46;-1.60;99.90
12384;DHT22;6256;63.808;20.336;2023-02-23T16:01:43;-1.70;99.90
12384;DHT22;6256;63.808;20.336;2023-02-23T16:06:39;-1.80;99.90
12384;DHT22;6256;63.808;20.336;2023-02-23T16:14:41;-2.00;99.90
12384;DHT22;6256;63.808;20.336;2023-02-23T16:17:25;-2.10;99.90
12384;DHT22;6256;63.808;20.336;2023-02-23T16:20:12;-2.20;99.90
12384;DHT22;6256;63.808;20.336;2023-02-23T16:22:39;-2.30;99.90
12384;DHT22;6256;63.808;20.336;2023-02-23T16:25:13;-2.40;99.90
12384;DHT22;6256;63.808;20.336;2023-02-23T16:27:40;-2.60;99.90
12384;DHT22;6256;63.808;20.336;2023-02-23T16:33:00;-2.70;99.90
12384;DHT22;6256;63.808;20.336;2023-02-23T16:35:42;-2.80;99.90
12384;DHT22;6256;63.808;20.336;2023-02-23T16:38:24;-2.70;99.90
12384;DHT22;6256;63.808;20.336;2023-02-23T16:40:50;-2.90;99.90
12384;DHT22;6256;63.808;20.336;2023-02-23T16:43:16;-3.00;99.90
12384;DHT22;6256;63.808;20.336;2023-02-23T16:45:42;-3.00;99.90
12384;DHT22;6256;63.808;20.336;2023-02-23T16:48:13;-3.00;99.90
12384;DHT22;6256;63.808;20.336;2023-02-23T16:50:39;-3.00;99.90
12384;DHT22;6256;63.808;20.336;2023-02-23T16:53:09;-3.00;99.90
12384;DHT22;6256;63.808;20.336;2023-02-23T16:56:01;-3.00;99.90
12384;DHT22;6256;63.808;20.336;2023-02-23T16:58:27;-2.90;99.90
12384;DHT22;6256;63.808;20.336;2023-02-23T17:00:55;-2.90;99.90
12384;DHT22;6256;63.808;20.336;2023-02-23T17:03:23;-2.90;99.90
12384;DHT22;6256;63.808;20.336;2023-02-23T17:05:49;-2.80;99.90
12384;DHT22;6256;63.808;20.336;2023-02-23T17:08:15;-2.90;99.90
12384;DHT22;6256;63.808;20.336;2023-02-23T17:10:42;-2.90;99.90
12384;DHT22;6256;63.808;20.336;2023-02-23T17:13:19;-2.90;99.90
12384;DHT22;6256;63.808;20.336;2023-02-23T17:15:46;-2.90;99.90
12384;DHT22;6256;63.808;20.336;2023-02-23T17:18:19;-3.00;99.90
12384;DHT22;6256;63.808;20.336;2023-02-23T17:20:45;-3.10;99.90
12384;DHT22;6256;63.808;20.336;2023-02-23T17:23:11;-3.20;99.90
12384;DHT22;6256;63.808;20.336;2023-02-23T17:25:38;-3.30;99.90
12384;DHT22;6256;63.808;20.336;2023-02-23T17:28:04;-3.40;99.90
12384;DHT22;6256;63.808;20.336;2023-02-23T17:30:30;-3.50;99.90
12384;DHT22;6256;63.808;20.336;2023-02-23T17:32:57;-3.50;99.90
12384;DHT22;6256;63.808;20.336;2023-02-23T17:35:24;-3.60;99.90
12384;DHT22;6256;63.808;20.336;2023-02-23T17:37:50;-3.60;99.90
12384;DHT22;6256;63.808;20.336;2023-02-23T17:40:24;-3.70;99.90
12384;DHT22;6256;63.808;20.336;2023-02-23T17:42:51;-3.70;99.90
12384;DHT22;6256;63.808;20.336;2023-02-23T17:45:17;-3.70;99.90
12384;DHT22;6256;63.808;20.336;2023-02-23T17:47:43;-3.80;99.90
12384;DHT22;6256;63.808;20.336;2023-02-23T17:50:09;-3.80;99.90
12384;DHT22;6256;63.808;20.336;2023-02-23T17:52:35;-3.90;99.90
12384;DHT22;6256;63.808;20.336;2023-02-23T17:55:01;-3.90;99.90
12384;DHT22;6256;63.808;20.336;2023-02-23T17:57:27;-3.90;99.90
12384;DHT22;6256;63.808;20.336;2023-02-23T17:59:55;-4.00;99.90
12384;DHT22;6256;63.808;20.336;2023-02-23T18:02:22;-4.00;99.90
12384;DHT22;6256;63.808;20.336;2023-02-23T18:04:49;-4.10;99.90
12384;DHT22;6256;63.808;20.336;2023-02-23T18:07:17;-4.20;99.90
12384;DHT22;6256;63.808;20.336;2023-02-23T18:09:43;-4.10;99.90
12384;DHT22;6256;63.808;20.336;2023-02-23T18:12:09;-4.10;99.90
12384;DHT22;6256;63.808;20.336;2023-02-23T18:14:35;-4.20;99.90